Time;durP1;ratioP1;P1;durP2;ratioP2;P2;SDS_P1;SDS_P2;PMS_P1;PMS_P2;Temp;Humidity;BMP_temperature;BMP_pressure;BME280_temperature;BME280_humidity;BME280_pressure;Samples;Min_cycle;Max_cycle;Signal;HPM_P1;HPM_P2
2023/05/27 00:01:20;;;;;;;6.63;4.60;;;17.80;99.90;;;;;;5071996;28;20390;-77
2023/05/27 00:03:46;;;;;;;6.30;4.40;;;17.70;99.90;;;;;;5069886;28;20414;-77
2023/05/27 00:06:11;;;;;;;5.88;4.60;;;17.90;99.90;;;;;;5051860;28;20401;-78
2023/05/27 00:08:37;;;;;;;5.00;4.23;;;18.70;99.90;;;;;;5052236;28;20382;-77
2023/05/27 00:11:03;;;;;;;7.20;5.17;;;17.60;99.90;;;;;;5052359;28;20393;-77
2023/05/27 00:13:28;;;;;;;7.20;5.30;;;17.40;99.90;;;;;;5054162;28;20438;-77
2023/05/27 00:15:54;;;;;;;6.50;5.10;;;16.80;99.90;;;;;;5071440;28;20384;-77
2023/05/27 00:18:20;;;;;;;6.70;5.07;;;17.10;99.90;;;;;;5071685;28;20392;-77
2023/05/27 00:20:45;;;;;;;5.82;4.63;;;17.00;99.90;;;;;;5071795;28;20437;-77
2023/05/27 00:23:11;;;;;;;4.97;4.50;;;17.00;99.90;;;;;;5072091;28;20425;-77
2023/05/27 00:25:36;;;;;;;5.30;4.23;;;16.80;99.90;;;;;;5071664;28;20482;-77
2023/05/27 00:28:02;;;;;;;6.90;5.40;;;17.00;99.90;;;;;;5053524;28;20387;-77
2023/05/27 00:30:27;;;;;;;5.60;4.93;;;17.00;99.90;;;;;;5053857;28;20445;-78
2023/05/27 00:32:53;;;;;;;8.10;4.97;;;16.30;99.90;;;;;;5053730;28;20475;-77
2023/05/27 00:35:18;;;;;;;5.53;5.00;;;16.10;99.90;;;;;;5071203;28;20471;-77
2023/05/27 00:37:44;;;;;;;6.90;5.10;;;16.70;99.90;;;;;;5070976;28;20403;-77
2023/05/27 00:40:11;;;;;;;6.70;5.03;;;16.50;99.90;;;;;;5070265;28;20388;-77
2023/05/27 00:42:37;;;;;;;6.40;4.80;;;16.70;99.90;;;;;;5053451;28;20466;-78
2023/05/27 00:45:04;;;;;;;7.43;4.82;;;16.60;99.90;;;;;;5071481;28;20467;-77
2023/05/27 00:47:32;;;;;;;5.73;4.40;;;16.50;99.90;;;;;;5070840;28;20850;-77
2023/05/27 00:49:58;;;;;;;5.70;5.07;;;;;;;;;;5071434;28;20384;-77
2023/05/27 00:52:25;;;;;;;6.00;5.07;;;16.60;99.90;;;;;;5053151;28;20383;-77
2023/05/27 00:54:51;;;;;;;5.53;4.97;;;15.80;99.90;;;;;;5071411;28;20391;-77
2023/05/27 00:57:17;;;;;;;6.80;5.00;;;16.30;99.90;;;;;;5070647;28;20415;-77
2023/05/27 00:59:43;;;;;;;6.07;5.47;;;16.60;99.90;;;;;;5071196;28;20956;-77
2023/05/27 01:02:08;;;;;;;6.30;5.20;;;16.00;99.90;;;;;;5052420;28;20415;-77
2023/05/27 01:04:34;;;;;;;6.75;4.90;;;17.70;99.90;;;;;;5071103;28;20379;-77
2023/05/27 01:07:17;;;;;;;7.33;5.40;;;16.10;99.90;;;;;;5052407;28;20905;-77
2023/05/27 01:10:09;;;;;;;8.65;5.30;;;16.00;99.90;;;;;;5070153;28;20392;-77
2023/05/27 01:12:39;;;;;;;12.95;8.95;;;16.10;99.90;;;;;;5032392;28;20393;-77
2023/05/27 01:15:06;;;;;;;10.45;6.50;;;15.80;99.90;;;;;;5032857;28;20466;-77
2023/05/27 01:17:37;;;;;;;8.93;5.70;;;15.30;99.90;;;;;;5050058;28;20401;-77
2023/05/27 01:20:05;;;;;;;9.90;5.70;;;15.70;99.90;;;;;;5064814;28;20383;-77
2023/05/27 01:22:31;;;;;;;10.15;7.05;;;15.10;99.90;;;;;;5070986;28;20429;-77
2023/05/27 01:24:57;;;;;;;10.35;6.60;;;;;;;;;;5052178;28;20433;-77
2023/05/27 01:27:24;;;;;;;9.65;7.10;;;15.00;99.90;;;;;;5070087;28;20765;-77
2023/05/27 01:29:51;;;;;;;12.75;7.80;;;15.20;99.90;;;;;;5070247;28;20388;-77
2023/05/27 01:32:28;;;;;;;10.52;7.10;;;15.30;99.90;;;;;;5070404;28;20414;-77
2023/05/27 01:35:11;;;;;;;12.27;7.95;;;14.50;99.90;;;;;;5070027;28;20904;-77
2023/05/27 01:37:40;;;;;;;9.32;6.60;;;15.10;99.90;;;;;;5069697;28;20412;-77
2023/05/27 01:40:08;;;;;;;9.82;6.80;;;14.60;99.90;;;;;;5052173;28;20470;-77
2023/05/27 01:42:38;;;;;;;10.23;6.68;;;14.50;99.90;;;;;;5052187;28;20379;-77
2023/05/27 01:45:06;;;;;;;11.00;7.18;;;14.80;99.90;;;;;;5068745;28;20423;-77
2023/05/27 01:47:31;;;;;;;11.03;7.17;;;15.00;99.90;;;;;;5070752;28;20859;-77
2023/05/27 01:49:57;;;;;;;10.80;6.70;;;14.50;99.90;;;;;;5070449;28;20386;-77
2023/05/27 01:52:23;;;;;;;9.75;6.72;;;14.40;99.90;;;;;;5069643;28;20384;-77
2023/05/27 01:54:49;;;;;;;8.40;7.00;;;;;;;;;;5070469;28;20829;-77
2023/05/27 01:57:16;;;;;;;10.95;7.00;;;14.20;99.90;;;;;;5069430;28;20400;-77
2023/05/27 01:59:42;;;;;;;10.53;6.90;;;13.90;99.90;;;;;;5069987;28;20816;-77
2023/05/27 02:02:10;;;;;;;12.37;7.37;;;;;;;;;;5093019;22;20440;-77
2023/05/27 02:04:44;;;;;;;11.02;6.72;;;;;;;;;;5090159;28;20394;-77
2023/05/27 02:07:22;;;;;;;12.15;6.53;;;14.30;99.90;;;;;;5071705;28;20374;-77
2023/05/27 02:09:54;;;;;;;11.45;6.82;;;;;;;;;;5090506;28;20465;-77
2023/05/27 02:12:26;;;;;;;13.38;7.00;;;;;;;;;;5070225;28;20384;-77
2023/05/27 02:14:52;;;;;;;12.77;6.73;;;;;;;;;;5070160;28;20746;-77
2023/05/27 02:17:18;;;;;;;10.70;6.90;;;;;;;;;;5068852;28;20486;-77
2023/05/27 02:19:45;;;;;;;10.93;6.65;;;;;;;;;;5069997;28;22246;-77
2023/05/27 02:22:11;;;;;;;10.20;6.15;;;;;;;;;;5051473;28;20387;-77
2023/05/27 02:24:39;;;;;;;12.43;6.20;;;;;;;;;;5069640;28;20387;-77
2023/05/27 02:27:05;;;;;;;13.20;6.60;;;;;;;;;;5050931;28;20478;-77
2023/05/27 02:29:34;;;;;;;9.07;7.10;;;;;;;;;;5069810;28;20383;-77
2023/05/27 02:32:03;;;;;;;8.07;6.00;;;;;;;;;;5069898;28;20379;-77
2023/05/27 02:34:40;;;;;;;9.57;6.10;;;;;;;;;;5069584;28;20402;-77
2023/05/27 02:37:06;;;;;;;14.32;7.10;;;;;;;;;;5069322;28;20886;-77
2023/05/27 02:39:33;;;;;;;11.23;6.40;;;;;;;;;;5051483;28;20908;-77
2023/05/27 02:42:04;;;;;;;12.68;7.28;;;;;;;;;;5069720;28;20379;-77
2023/05/27 02:44:30;;;;;;;11.23;7.85;;;;;;;;;;5069778;28;20437;-77
2023/05/27 02:47:04;;;;;;;15.43;7.00;;;;;;;;;;5069013;28;20383;-77
2023/05/27 02:49:33;;;;;;;10.73;6.40;;;;;;;;;;5069579;28;20471;-77
2023/05/27 02:52:02;;;;;;;14.82;7.00;;;;;;;;;;5069256;28;20458;-77
2023/05/27 02:54:31;;;;;;;12.10;6.78;;;;;;;;;;5051704;28;20552;-77
2023/05/27 02:57:06;;;;;;;10.57;6.72;;;;;;;;;;5069229;28;20426;-77
2023/05/27 02:59:32;;;;;;;12.55;6.60;;;;;;;;;;5069827;28;20921;-77
2023/05/27 03:05:24;;;;;;;;;;;;;;;;;;;;;
2023/05/27 03:07:56;;;;;;;10.60;6.47;;;;;;;;;;5053003;28;20373;-77
2023/05/27 03:10:31;;;;;;;14.18;7.38;;;;;;;;;;5072983;28;20731;-77
2023/05/27 03:16:05;;;;;;;14.02;6.72;;;;;;;;;;5071950;28;20410;-77
2023/05/27 03:18:43;;;;;;;11.85;6.82;;;;;;;;;;5073261;28;20376;-77
2023/05/27 03:21:19;;;;;;;11.77;6.47;;;;;;;;;;5073337;28;20388;-78
2023/05/27 03:23:50;;;;;;;13.20;7.72;;;;;;;;;;5073747;28;20384;-78
2023/05/27 03:29:11;;;;;;;10.45;7.18;;;;;;;;;;5073465;28;20826;-78
2023/05/27 03:31:43;;;;;;;14.10;7.20;;;;;;;;;;5073027;28;20376;-78
2023/05/27 03:34:48;;;;;;;12.52;7.05;;;13.10;99.90;;;;;;5054892;28;20387;-77
2023/05/27 03:37:24;;;;;;;11.90;7.00;;;;;;;;;;5042862;28;20412;-77
2023/05/27 03:39:50;;;;;;;10.05;6.72;;;;;;;;;;5072158;28;20386;-78
2023/05/27 03:42:45;;;;;;;11.75;6.90;;;13.10;99.90;;;;;;5074910;28;20395;-77
2023/05/27 03:45:26;;;;;;;12.02;6.93;;;;;;;;;;5074603;28;20380;-77
2023/05/27 03:48:01;;;;;;;13.43;6.55;;;;;;;;;;5075827;28;20382;-77
2023/05/27 03:50:50;;;;;;;11.30;6.43;;;;;;;;;;5075145;28;20715;-77
2023/05/27 03:53:18;;;;;;;11.63;6.37;;;;;;;;;;5072379;28;20392;-78
2023/05/27 03:56:06;;;;;;;11.45;7.05;;;12.60;99.90;;;;;;5072379;28;20455;-78
2023/05/27 03:58:32;;;;;;;11.80;6.57;;;12.70;99.90;;;;;;5023391;28;20395;-77
2023/05/27 04:00:57;;;;;;;14.33;6.97;;;12.40;99.90;;;;;;5054392;28;20460;-78
2023/05/27 04:03:23;;;;;;;13.10;6.47;;;12.70;99.90;;;;;;5054462;28;20406;-78
2023/05/27 04:05:48;;;;;;;10.68;7.07;;;12.40;99.90;;;;;;5052275;28;20385;-78
2023/05/27 04:08:14;;;;;;;11.73;6.63;;;12.90;99.90;;;;;;5063849;28;20475;-77
2023/05/27 04:10:40;;;;;;;9.40;6.50;;;12.60;99.90;;;;;;5071799;28;20469;-78
2023/05/27 04:13:05;;;;;;;11.48;6.63;;;12.90;99.90;;;;;;5071959;28;20399;-77
2023/05/27 04:15:31;;;;;;;11.68;6.70;;;13.10;99.90;;;;;;5071669;28;20436;-77
2023/05/27 04:17:57;;;;;;;12.82;7.03;;;12.80;99.90;;;;;;5072082;28;20404;-77
2023/05/27 04:20:23;;;;;;;15.15;7.15;;;13.00;99.90;;;;;;5071605;28;20489;-77
2023/05/27 04:22:48;;;;;;;12.70;6.57;;;13.10;99.90;;;;;;5072349;28;20399;-78
2023/05/27 04:25:14;;;;;;;10.97;7.03;;;12.50;99.90;;;;;;5071958;28;20402;-77
2023/05/27 04:27:39;;;;;;;10.90;6.40;;;12.70;99.90;;;;;;5053236;28;20462;-77
2023/05/27 04:30:06;;;;;;;11.77;7.40;;;13.00;99.90;;;;;;5071578;28;20402;-77
2023/05/27 04:32:40;;;;;;;10.67;6.30;;;12.80;99.90;;;;;;5071900;28;20384;-77
2023/05/27 04:35:10;;;;;;;11.10;6.50;;;12.70;99.90;;;;;;5071957;28;20920;-78
2023/05/27 04:37:37;;;;;;;8.85;6.00;;;12.90;99.90;;;;;;5055092;28;20415;-77
2023/05/27 04:40:08;;;;;;;11.68;7.10;;;12.50;99.90;;;;;;5073308;28;20877;-77
2023/05/27 04:42:36;;;;;;;9.00;6.40;;;12.80;99.90;;;;;;5072846;28;20437;-77
2023/05/27 04:45:06;;;;;;;12.85;6.97;;;12.70;99.90;;;;;;5054053;28;20762;-77
2023/05/27 04:47:32;;;;;;;13.40;6.40;;;12.90;99.90;;;;;;5053449;28;20400;-77
2023/05/27 04:50:00;;;;;;;11.43;7.00;;;12.70;99.90;;;;;;5072198;28;20527;-77
2023/05/27 04:52:26;;;;;;;10.05;6.80;;;13.20;99.90;;;;;;5072494;28;20503;-78
2023/05/27 04:54:54;;;;;;;11.65;7.13;;;12.80;99.90;;;;;;5072398;28;20412;-78
2023/05/27 04:57:20;;;;;;;14.00;7.18;;;12.80;99.90;;;;;;5071098;28;20410;-78
2023/05/27 04:59:58;;;;;;;12.38;7.57;;;12.80;99.90;;;;;;5071045;28;20842;-78
2023/05/27 05:02:27;;;;;;;11.73;6.57;;;13.40;99.90;;;;;;5071305;28;20392;-77
2023/05/27 05:04:52;;;;;;;10.50;6.60;;;13.50;99.90;;;;;;5070984;28;20973;-77
2023/05/27 05:07:21;;;;;;;13.07;6.87;;;13.00;99.90;;;;;;5070654;28;20517;-77
2023/05/27 05:09:46;;;;;;;10.90;6.55;;;13.20;99.90;;;;;;5071377;28;20805;-78
2023/05/27 05:12:12;;;;;;;11.25;6.82;;;13.30;99.90;;;;;;5091809;22;20395;-80
2023/05/27 05:14:38;;;;;;;9.95;6.57;;;12.90;99.90;;;;;;5103081;28;20454;-80
2023/05/27 05:17:04;;;;;;;11.13;6.87;;;;;;;;;;5083610;28;20397;-81
2023/05/27 05:19:30;;;;;;;9.88;6.35;;;13.80;99.90;;;;;;5102957;28;20378;-81
2023/05/27 05:21:55;;;;;;;14.50;6.90;;;13.40;99.90;;;;;;5102598;28;20386;-81
2023/05/27 05:24:21;;;;;;;12.43;6.47;;;13.10;99.90;;;;;;5083495;28;20397;-81
2023/05/27 05:26:46;;;;;;;13.40;7.10;;;12.90;99.90;;;;;;5084014;28;20374;-81
2023/05/27 05:29:12;;;;;;;10.63;6.57;;;13.80;99.90;;;;;;5102634;28;20393;-81
2023/05/27 05:31:37;;;;;;;11.77;6.97;;;13.50;99.90;;;;;;5084981;28;20382;-81
2023/05/27 05:34:03;;;;;;;9.93;6.43;;;13.80;99.90;;;;;;5097406;28;20391;-80
2023/05/27 05:36:29;;;;;;;13.38;7.30;;;13.00;99.90;;;;;;5065481;28;20395;-80
2023/05/27 05:38:54;;;;;;;12.05;6.95;;;13.80;99.90;;;;;;5065003;28;20392;-81
2023/05/27 05:41:20;;;;;;;13.98;6.80;;;13.80;99.90;;;;;;5069957;28;20390;-81
2023/05/27 05:43:45;;;;;;;13.40;6.90;;;13.60;99.90;;;;;;5101303;28;20382;-81
2023/05/27 05:46:11;;;;;;;9.57;6.60;;;13.70;99.90;;;;;;5083561;28;20386;-81
2023/05/27 05:48:36;;;;;;;12.43;7.20;;;13.50;99.90;;;;;;5085585;28;20378;-82
2023/05/27 05:51:02;;;;;;;11.00;7.10;;;16.50;99.90;;;;;;5098968;28;20444;-81
2023/05/27 05:53:28;;;;;;;11.33;7.20;;;13.80;99.90;;;;;;5071495;28;20394;-80
2023/05/27 05:55:54;;;;;;;12.02;6.20;;;;;;;;;;5106050;28;20378;-80
2023/05/27 05:58:20;;;;;;;13.50;6.60;;;13.90;99.90;;;;;;5089311;28;20398;-80
2023/05/27 06:00:46;;;;;;;13.57;6.53;;;14.10;99.90;;;;;;5086356;28;20454;-81
2023/05/27 06:03:11;;;;;;;9.40;6.47;;;14.30;99.90;;;;;;5099154;28;20384;-81
2023/05/27 06:05:37;;;;;;;10.00;6.53;;;13.40;99.90;;;;;;5081051;28;20382;-80
2023/05/27 06:08:02;;;;;;;9.18;6.05;;;13.80;99.90;;;;;;5083659;28;20382;-80
2023/05/27 06:10:28;;;;;;;11.63;6.53;;;13.60;99.90;;;;;;5082675;28;20408;-81
2023/05/27 06:12:53;;;;;;;14.20;6.20;;;13.80;99.90;;;;;;5102432;28;20921;-81
2023/05/27 06:15:19;;;;;;;10.45;6.22;;;13.40;99.90;;;;;;5100768;28;20771;-81
2023/05/27 06:17:44;;;;;;;10.53;6.60;;;17.30;99.90;;;;;;5100326;28;20393;-80
2023/05/27 06:20:10;;;;;;;10.13;5.83;;;14.00;99.90;;;;;;5073250;28;20486;-81
2023/05/27 06:22:36;;;;;;;11.93;5.88;;;14.20;99.90;;;;;;5063998;28;20774;-81
2023/05/27 06:25:02;;;;;;;11.27;5.93;;;13.90;99.90;;;;;;5081521;28;20411;-82
2023/05/27 06:27:27;;;;;;;10.73;6.45;;;14.20;99.90;;;;;;5073113;28;20398;-82
2023/05/27 06:29:53;;;;;;;10.82;6.90;;;15.10;99.90;;;;;;5100499;28;20746;-82
2023/05/27 06:32:18;;;;;;;9.75;6.47;;;14.20;99.90;;;;;;5082390;28;20397;-81
2023/05/27 06:34:44;;;;;;;14.73;6.93;;;14.00;99.90;;;;;;5102122;28;20394;-81
2023/05/27 06:37:10;;;;;;;10.43;7.20;;;14.20;99.90;;;;;;5077700;28;20407;-82
2023/05/27 06:39:35;;;;;;;11.63;6.45;;;15.00;99.90;;;;;;5066836;28;20429;-82
2023/05/27 06:42:01;;;;;;;11.07;6.00;;;14.90;99.90;;;;;;5066815;28;20448;-82
2023/05/27 06:44:26;;;;;;;9.53;6.50;;;14.40;99.90;;;;;;5067496;28;20430;-81
2023/05/27 06:46:52;;;;;;;9.53;6.30;;;14.20;99.90;;;;;;5085722;28;20397;-82
2023/05/27 06:49:17;;;;;;;6.53;5.50;;;14.30;99.90;;;;;;5085398;28;20434;-81
2023/05/27 06:51:43;;;;;;;9.50;5.90;;;14.20;99.90;;;;;;5086097;28;20392;-81
2023/05/27 06:54:09;;;;;;;12.23;5.97;;;14.40;99.90;;;;;;5085104;28;20837;-82
2023/05/27 06:56:34;;;;;;;12.15;6.00;;;15.00;99.90;;;;;;5069129;28;20406;-82
2023/05/27 06:59:00;;;;;;;10.27;6.43;;;14.60;99.90;;;;;;5065935;28;20470;-82
2023/05/27 07:01:25;;;;;;;7.47;5.00;;;14.70;99.90;;;;;;5084487;28;20375;-82
2023/05/27 07:03:52;;;;;;;9.03;5.90;;;15.00;99.90;;;;;;5074011;28;20924;-81
2023/05/27 07:06:17;;;;;;;9.18;6.22;;;14.50;99.90;;;;;;5084221;28;20388;-81
2023/05/27 07:08:43;;;;;;;12.07;6.10;;;14.80;99.90;;;;;;5083975;28;20387;-82
2023/05/27 07:11:08;;;;;;;13.43;6.03;;;14.70;99.90;;;;;;5082631;28;20392;-82
2023/05/27 07:13:34;;;;;;;11.57;5.10;;;15.20;99.90;;;;;;5091961;28;20424;-82
2023/05/27 07:16:00;;;;;;;11.10;5.90;;;14.10;99.90;;;;;;5104262;28;20412;-82
2023/05/27 07:18:25;;;;;;;11.80;5.80;;;14.70;99.90;;;;;;5096468;28;20430;-81
2023/05/27 07:20:51;;;;;;;12.07;5.57;;;15.20;99.90;;;;;;5065649;28;20388;-81
2023/05/27 07:23:16;;;;;;;13.00;5.93;;;15.60;99.90;;;;;;5088055;28;20394;-81
2023/05/27 07:25:42;;;;;;;11.80;6.10;;;15.00;99.90;;;;;;5088308;28;20393;-82
2023/05/27 07:28:07;;;;;;;9.20;5.82;;;14.50;99.90;;;;;;5092265;28;20416;-81
2023/05/27 07:30:33;;;;;;;11.20;6.30;;;14.80;99.90;;;;;;5113081;28;20461;-81
2023/05/27 07:32:58;;;;;;;10.70;5.60;;;15.20;99.90;;;;;;5110870;28;20448;-82
2023/05/27 07:35:24;;;;;;;12.10;5.72;;;15.10;99.90;;;;;;5083312;28;20399;-81
2023/05/27 07:37:49;;;;;;;9.50;5.53;;;15.30;99.90;;;;;;5071122;28;20400;-81
2023/05/27 07:40:15;;;;;;;12.23;6.37;;;15.80;99.90;;;;;;5105237;28;20476;-82
2023/05/27 07:42:40;;;;;;;8.15;5.10;;;15.70;99.90;;;;;;5087617;28;20435;-80
2023/05/27 07:45:07;;;;;;;8.77;5.47;;;15.50;99.90;;;;;;5085689;28;20382;-81
2023/05/27 07:47:33;;;;;;;11.48;5.50;;;;;;;;;;5101788;28;20483;-81
2023/05/27 07:49:59;;;;;;;11.63;6.35;;;;;;;;;;5070179;28;20395;-82
2023/05/27 07:52:24;;;;;;;8.32;5.68;;;16.30;99.90;;;;;;5104725;28;20389;-82
2023/05/27 07:54:51;;;;;;;11.65;5.50;;;16.20;99.90;;;;;;5086654;28;21431;-80
2023/05/27 07:57:17;;;;;;;9.00;5.65;;;16.30;99.90;;;;;;5103592;28;20423;-80
2023/05/27 07:59:43;;;;;;;10.02;6.05;;;16.50;99.90;;;;;;5087034;28;20804;-80
2023/05/27 08:02:09;;;;;;;10.77;6.30;;;16.10;99.90;;;;;;5084850;28;20391;-80
2023/05/27 08:04:35;;;;;;;9.40;5.10;;;15.50;99.90;;;;;;5073905;28;20426;-80
2023/05/27 08:07:03;;;;;;;10.18;5.88;;;16.90;99.90;;;;;;5101557;28;20428;-80
2023/05/27 08:09:28;;;;;;;9.95;5.50;;;16.50;99.90;;;;;;5086220;28;20415;-81
2023/05/27 08:11:54;;;;;;;10.68;5.90;;;16.80;99.90;;;;;;5104230;28;20386;-81
2023/05/27 08:14:27;;;;;;;8.03;4.90;;;;;;;;;;5083986;28;20398;-83
2023/05/27 08:16:54;;;;;;;9.13;4.97;;;16.40;99.90;;;;;;5083754;28;20424;-81
2023/05/27 08:19:19;;;;;;;8.13;5.20;;;20.10;99.90;;;;;;5080355;28;20386;-81
2023/05/27 08:21:45;;;;;;;7.32;4.80;;;16.40;99.90;;;;;;5100955;28;20866;-80
2023/05/27 08:24:12;;;;;;;9.37;5.73;;;16.50;99.90;;;;;;5102266;28;20414;-81
2023/05/27 08:26:37;;;;;;;10.75;5.82;;;16.40;99.90;;;;;;5100072;28;20410;-80
2023/05/27 08:29:05;;;;;;;9.53;5.13;;;16.70;99.90;;;;;;5073817;28;20402;-83
2023/05/27 08:31:30;;;;;;;9.20;5.40;;;17.40;99.90;;;;;;5063146;28;20384;-81
2023/05/27 08:33:56;;;;;;;7.03;5.45;;;17.40;99.90;;;;;;5063525;28;20391;-81
2023/05/27 08:36:22;;;;;;;6.77;5.03;;;16.90;99.90;;;;;;5074445;28;20923;-81
2023/05/27 08:38:48;;;;;;;9.83;5.40;;;16.70;99.90;;;;;;5084195;28;20385;-80
2023/05/27 08:41:14;;;;;;;9.00;5.43;;;17.90;99.90;;;;;;5103289;28;20886;-81
2023/05/27 08:43:41;;;;;;;9.80;5.37;;;17.20;99.90;;;;;;5103473;28;20374;-81
2023/05/27 08:46:08;;;;;;;9.20;5.10;;;16.80;99.90;;;;;;5092480;28;20395;-81
2023/05/27 08:48:33;;;;;;;6.38;5.07;;;17.20;99.90;;;;;;5086488;28;20394;-82
2023/05/27 08:51:05;;;;;;;8.53;5.37;;;18.00;99.90;;;;;;5074448;28;20402;-82
2023/05/27 08:53:41;;;;;;;9.35;5.30;;;;;;;;;;5061480;28;20384;-82
2023/05/27 08:56:12;;;;;;;8.65;4.90;;;17.80;99.90;;;;;;5078704;28;20885;-81
2023/05/27 08:58:39;;;;;;;8.95;5.45;;;18.80;99.90;;;;;;5081583;28;20806;-82
2023/05/27 09:01:05;;;;;;;9.23;5.20;;;18.40;99.90;;;;;;5073352;28;20417;-82
2023/05/27 09:03:30;;;;;;;7.72;5.20;;;21.10;99.90;;;;;;5083399;28;20757;-81
2023/05/27 09:05:56;;;;;;;8.18;5.20;;;18.60;99.90;;;;;;5081105;28;20380;-81
2023/05/27 09:08:22;;;;;;;8.47;4.80;;;18.30;99.90;;;;;;5068058;28;20410;-81
2023/05/27 09:10:48;;;;;;;11.95;5.30;;;17.90;99.90;;;;;;5091756;28;20903;-81
2023/05/27 09:13:13;;;;;;;10.30;5.37;;;18.60;99.90;;;;;;5098296;28;20394;-81
2023/05/27 09:15:40;;;;;;;10.15;4.80;;;18.10;99.90;;;;;;5076913;28;20477;-81
2023/05/27 09:18:06;;;;;;;8.15;5.25;;;18.20;99.90;;;;;;5094721;28;20759;-81
2023/05/27 09:20:32;;;;;;;9.30;5.30;;;18.60;99.90;;;;;;5058150;28;20381;-81
2023/05/27 09:23:02;;;;;;;9.83;5.67;;;18.50;99.90;;;;;;5057366;28;20383;-81
2023/05/27 09:25:28;;;;;;;8.43;5.22;;;18.70;99.90;;;;;;5082263;28;20409;-82
2023/05/27 09:27:55;;;;;;;8.65;4.78;;;19.00;99.90;;;;;;5103335;28;20381;-82
2023/05/27 09:30:21;;;;;;;8.75;5.00;;;18.70;99.90;;;;;;5084274;28;20414;-81
2023/05/27 09:32:47;;;;;;;7.40;5.22;;;19.10;99.90;;;;;;5081829;28;20378;-82
2023/05/27 09:35:15;;;;;;;8.32;5.10;;;18.60;99.90;;;;;;5069038;28;20398;-81
2023/05/27 09:37:41;;;;;;;11.27;5.78;;;20.30;99.90;;;;;;5080460;28;20411;-81
2023/05/27 09:40:08;;;;;;;10.82;5.70;;;18.80;99.90;;;;;;5081538;28;20376;-81
2023/05/27 09:42:47;;;;;;;11.07;5.70;;;19.50;99.90;;;;;;5082963;28;20383;-81
2023/05/27 09:45:20;;;;;;;7.50;5.07;;;19.80;99.90;;;;;;5082539;28;20461;-82
2023/05/27 09:47:55;;;;;;;10.52;5.50;;;19.60;99.90;;;;;;5082984;28;20394;-82
2023/05/27 09:50:21;;;;;;;8.30;4.80;;;19.70;99.90;;;;;;5099672;28;20428;-81
2023/05/27 09:52:48;;;;;;;9.82;5.00;;;19.90;99.90;;;;;;5099821;28;20382;-81
2023/05/27 09:55:16;;;;;;;8.07;5.33;;;19.60;99.90;;;;;;5062615;28;20403;-81
2023/05/27 09:57:42;;;;;;;10.65;5.40;;;22.20;99.90;;;;;;5079179;28;20400;-82
2023/05/27 10:00:13;;;;;;;6.13;5.18;;;20.60;99.90;;;;;;5061895;28;20376;-81
2023/05/27 10:02:40;;;;;;;8.95;5.30;;;19.80;99.90;;;;;;5081005;28;20405;-82
2023/05/27 10:05:10;;;;;;;11.20;5.70;;;19.50;99.90;;;;;;5086395;28;20535;-81
2023/05/27 10:07:38;;;;;;;11.35;5.25;;;19.90;99.90;;;;;;5088194;28;20390;-81
2023/05/27 10:10:09;;;;;;;9.48;5.05;;;21.40;99.90;;;;;;5087482;28;20383;-81
2023/05/27 10:12:37;;;;;;;10.63;5.30;;;19.80;99.90;;;;;;5067849;28;20499;-82
2023/05/27 10:15:03;;;;;;;6.85;5.25;;;20.40;99.90;;;;;;5098995;28;20393;-83
2023/05/27 10:17:51;;;;;;;9.93;5.47;;;20.00;99.90;;;;;;5078967;28;20407;-82
2023/05/27 10:20:31;;;;;;;6.82;4.93;;;20.30;99.90;;;;;;5065451;28;20383;-82
2023/05/27 10:23:15;;;;;;;10.00;5.40;;;20.10;99.90;;;;;;5067542;28;20387;-82
2023/05/27 10:25:47;;;;;;;7.15;4.85;;;20.60;99.90;;;;;;5064681;28;20490;-82
2023/05/27 10:28:35;;;;;;;9.93;5.18;;;19.60;99.90;;;;;;5083977;28;20394;-82
2023/05/27 10:31:13;;;;;;;11.18;7.20;;;20.80;99.90;;;;;;5066939;28;20391;-81
2023/05/27 10:33:43;;;;;;;8.13;5.50;;;20.30;99.90;;;;;;5067610;28;20399;-82
2023/05/27 10:36:17;;;;;;;9.98;5.03;;;20.10;99.90;;;;;;5083853;28;20466;-82
2023/05/27 10:38:54;;;;;;;9.95;5.40;;;20.80;99.90;;;;;;5103861;28;20386;-82
2023/05/27 10:41:20;;;;;;;10.43;6.20;;;21.40;99.90;;;;;;5104915;28;20416;-82
2023/05/27 10:43:57;;;;;;;11.32;5.80;;;21.10;99.90;;;;;;5105277;28;20374;-82
2023/05/27 10:46:24;;;;;;;9.68;5.10;;;20.60;99.90;;;;;;5103938;28;20370;-82
2023/05/27 10:48:50;;;;;;;9.30;5.45;;;21.20;99.90;;;;;;5068021;28;20384;-82
2023/05/27 10:51:15;;;;;;;8.07;5.30;;;23.00;99.90;;;;;;5067477;28;20433;-82
2023/05/27 10:53:41;;;;;;;8.13;5.40;;;21.50;99.90;;;;;;5085565;28;20379;-82
2023/05/27 10:56:08;;;;;;;8.05;5.20;;;23.80;99.90;;;;;;5086140;28;20940;-82
2023/05/27 10:58:35;;;;;;;9.00;5.80;;;21.80;99.90;;;;;;5085470;28;20452;-81
2023/05/27 11:01:09;;;;;;;9.52;5.70;;;21.70;99.90;;;;;;5105504;28;20403;-82
2023/05/27 11:03:34;;;;;;;9.57;5.45;;;21.80;99.90;;;;;;5109548;28;20458;-82
2023/05/27 11:06:04;;;;;;;6.78;4.90;;;22.00;99.90;;;;;;5088594;28;20455;-82
2023/05/27 11:08:32;;;;;;;8.80;6.00;;;21.80;99.90;;;;;;5107818;28;20392;-82
2023/05/27 11:11:02;;;;;;;6.82;4.93;;;23.00;99.90;;;;;;5094485;28;20471;-83
2023/05/27 11:13:35;;;;;;;8.63;4.78;;;22.00;99.90;;;;;;5102133;23;20968;-78
2023/05/27 11:16:06;;;;;;;8.60;5.30;;;22.40;99.90;;;;;;5094155;28;20865;-78
2023/05/27 11:18:38;;;;;;;7.43;4.85;;;22.40;99.90;;;;;;5094415;28;20410;-77
2023/05/27 11:21:05;;;;;;;5.88;4.40;;;22.50;99.90;;;;;;5092628;28;20384;-79
2023/05/27 11:23:36;;;;;;;10.88;5.38;;;22.50;99.90;;;;;;5099156;28;20377;-78
2023/05/27 11:26:02;;;;;;;7.60;5.10;;;23.60;99.90;;;;;;5093869;28;20469;-78
2023/05/27 11:28:27;;;;;;;10.13;5.53;;;22.60;99.90;;;;;;5087913;28;20452;-79
2023/05/27 11:31:02;;;;;;;7.40;5.05;;;22.70;99.90;;;;;;5114232;28;20371;-78
2023/05/27 11:33:32;;;;;;;7.30;4.95;;;22.90;99.90;;;;;;5103666;28;20398;-78
2023/05/27 11:36:11;;;;;;;7.38;5.20;;;22.60;99.90;;;;;;5090478;28;20388;-78
2023/05/27 11:39:10;;;;;;;7.97;4.90;;;23.80;99.90;;;;;;5090109;28;20469;-78
2023/05/27 11:41:35;;;;;;;7.15;4.80;;;24.70;99.90;;;;;;5094330;28;20399;-78
2023/05/27 11:45:09;;;;;;;7.40;5.80;;;25.90;99.90;;;;;;5102858;22;20911;-78
2023/05/27 11:48:13;;;;;;;7.30;5.40;;;;;;;;;;5008531;28;20441;-79
2023/05/27 11:51:14;;;;;;;6.55;4.82;;;;;;;;;;4950881;29;20398;-78
2023/05/27 11:57:39;;;;;;;9.43;4.85;;;;;;;;;;5066378;28;20905;-78
2023/05/27 12:00:25;;;;;;;6.25;5.13;;;26.80;99.90;;;;;;4976411;28;20393;-77
2023/05/27 12:03:14;;;;;;;7.75;5.07;;;;;;;;;;4988199;28;20526;-78
2023/05/27 12:06:28;;;;;;;9.98;5.20;;;26.90;99.90;;;;;;5060236;28;20395;-78
2023/05/27 12:08:54;;;;;;;9.55;5.13;;;;;;;;;;5015746;28;20514;-78
2023/05/27 12:11:26;;;;;;;5.85;4.88;;;;;;;;;;5015501;28;20392;-78
2023/05/27 12:13:56;;;;;;;8.93;5.80;;;26.20;99.90;;;;;;5051012;28;20405;-79
2023/05/27 12:16:22;;;;;;;7.60;4.80;;;;;;;;;;5064256;28;20399;-80
2023/05/27 12:18:51;;;;;;;7.93;4.90;;;;;;;;;;5079829;28;20458;-79
2023/05/27 12:21:34;;;;;;;8.48;5.20;;;;;;;;;;5082984;28;20376;-80
2023/05/27 12:24:00;;;;;;;6.38;5.03;;;;;;;;;;5098264;28;20389;-80
2023/05/27 12:26:36;;;;;;;7.78;5.00;;;;;;;;;;5080789;28;20390;-78
2023/05/27 12:29:38;;;;;;;6.82;5.10;;;25.90;99.90;;;;;;5076657;28;20908;-78
2023/05/27 12:32:04;;;;;;;7.55;6.10;;;;;;;;;;5081118;28;20409;-79
2023/05/27 12:34:43;;;;;;;6.90;4.70;;;;;;;;;;5095715;28;20370;-79
2023/05/27 12:37:27;;;;;;;5.55;4.95;;;;;;;;;;5077983;28;20914;-79
2023/05/27 12:39:59;;;;;;;5.93;5.13;;;;;;;;;;5097999;28;20401;-79
2023/05/27 12:42:28;;;;;;;7.95;5.03;;;;;;;;;;5076844;28;20443;-79
2023/05/27 12:51:01;;;;;;;7.38;5.00;;;;;;;;;;5094515;28;20741;-80
2023/05/27 12:53:32;;;;;;;5.53;4.43;;;;;;;;;;5094194;28;20790;-81
2023/05/27 12:55:58;;;;;;;9.05;4.95;;;;;;;;;;5064414;28;20379;-79
2023/05/27 12:58:33;;;;;;;5.40;4.90;;;;;;;;;;5073994;28;20414;-80
2023/05/27 13:03:51;;;;;;;6.47;4.57;;;;;;;;;;5069737;28;20873;-79
2023/05/27 13:06:56;;;;;;;7.53;4.53;;;;;;;;;;5073671;28;20371;-80
2023/05/27 13:09:36;;;;;;;7.30;5.47;;;;;;;;;;5014388;28;20827;-79
2023/05/27 13:12:08;;;;;;;5.80;5.00;;;;;;;;;;5013247;28;20403;-79
2023/05/27 13:15:16;;;;;;;6.90;5.00;;;;;;;;;;5011491;28;20993;-80
2023/05/27 13:18:02;;;;;;;6.03;4.70;;;;;;;;;;5004366;28;20399;-80
2023/05/27 13:20:30;;;;;;;8.00;5.15;;;;;;;;;;5035093;28;20919;-81
2023/05/27 13:23:00;;;;;;;8.73;5.38;;;;;;;;;;5075021;28;20376;-85
2023/05/27 13:25:28;;;;;;;7.35;5.40;;;26.70;99.90;;;;;;5074792;28;20478;-82
2023/05/27 13:27:54;;;;;;;8.30;5.60;;;26.90;99.90;;;;;;5057165;28;20400;-81
2023/05/27 13:30:20;;;;;;;9.50;5.50;;;28.20;99.90;;;;;;5076175;28;20391;-82
2023/05/27 13:32:46;;;;;;;7.27;4.83;;;27.60;99.90;;;;;;5075998;28;20897;-81
2023/05/27 13:35:12;;;;;;;8.30;5.30;;;28.40;99.90;;;;;;5075361;28;20368;-82
2023/05/27 13:37:40;;;;;;;6.72;4.65;;;28.50;99.90;;;;;;5075081;28;20466;-81
2023/05/27 13:40:07;;;;;;;6.80;4.80;;;28.40;99.90;;;;;;5076211;28;20478;-82
2023/05/27 13:42:34;;;;;;;6.97;4.90;;;27.30;99.90;;;;;;5075768;28;20386;-81